Time;durP1;ratioP1;P1;durP2;ratioP2;P2;SDS_P1;SDS_P2;PMS_P1;PMS_P2;Temp;Humidity;BMP_temperature;BMP_pressure;BME280_temperature;BME280_humidity;BME280_pressure;Samples;Min_cycle;Max_cycle;Signal;HPM_P1;HPM_P2
2022/11/06 00:00:44;;;;;;;;;;;;;;;15.08;76.23;100994.56;1297302;22;629;-75
2022/11/06 00:01:34;;;;;;;;;;;;;;;15.06;75.40;101003.72;1296956;22;617;-76
2022/11/06 00:02:25;;;;;;;;;;;;;;;15.10;75.72;100999.81;1297118;22;613;-74
2022/11/06 00:03:15;;;;;;;;;;;;;;;15.02;74.74;101000.47;1297146;22;633;-75
2022/11/06 00:04:06;;;;;;;;;;;;;;;15.07;76.37;101000.06;1297038;22;633;-75
2022/11/06 00:06:46;;;;;;;;;;;;;;;15.11;75.64;101014.94;1297234;22;585;-75
2022/11/06 00:07:19;;;;;;;;;;;;;;;15.05;74.88;100991.31;1295229;22;610;-76
2022/11/06 00:08:09;;;;;;;;;;;;;;;15.04;76.07;100984.25;1297052;22;1904;-77
2022/11/06 00:08:59;;;;;;;;;;;;;;;15.05;74.89;100983.25;1296412;22;718;-77
2022/11/06 00:09:50;;;;;;;;;;;;;;;15.08;76.20;100983.00;1297182;22;723;-77
2022/11/06 00:10:40;;;;;;;;;;;;;;;15.10;75.36;100997.13;1297260;22;605;-77
2022/11/06 00:11:31;;;;;;;;;;;;;;;15.02;75.63;100999.59;1297039;22;888;-77
2022/11/06 00:12:21;;;;;;;;;;;;;;;15.06;76.19;100996.53;1296834;22;676;-78
2022/11/06 00:13:11;;;;;;;;;;;;;;;15.07;76.11;100992.88;1295689;22;645;-77
2022/11/06 00:14:02;;;;;;;;;;;;;;;15.11;76.14;101004.22;1296560;22;676;-77
2022/11/06 00:14:52;;;;;;;;;;;;;;;15.13;76.05;101008.50;1296945;22;767;-77
2022/11/06 00:15:43;;;;;;;;;;;;;;;15.14;76.26;101004.81;1297083;22;614;-77
2022/11/06 00:16:33;;;;;;;;;;;;;;;15.15;75.78;101001.16;1297059;22;621;-77
2022/11/06 00:17:24;;;;;;;;;;;;;;;15.15;75.79;101000.31;1296958;22;704;-78
2022/11/06 00:18:14;;;;;;;;;;;;;;;15.13;76.05;101004.94;1297270;22;793;-77
2022/11/06 00:19:04;;;;;;;;;;;;;;;14.94;74.70;100998.38;1297076;22;566;-76
2022/11/06 00:19:55;;;;;;;;;;;;;;;14.83;74.99;100995.72;1297073;22;660;-76
2022/11/06 00:20:45;;;;;;;;;;;;;;;14.98;76.35;101000.81;1297386;22;675;-77
2022/11/06 00:21:36;;;;;;;;;;;;;;;15.00;76.28;101002.41;1296904;22;649;-77
2022/11/06 00:22:26;;;;;;;;;;;;;;;15.08;76.13;101004.47;1297202;22;640;-77
2022/11/06 00:23:17;;;;;;;;;;;;;;;14.92;75.02;100997.66;1296273;22;593;-77
2022/11/06 00:24:08;;;;;;;;;;;;;;;15.04;76.39;101003.03;1297117;22;621;-77
2022/11/06 00:24:58;;;;;;;;;;;;;;;15.08;76.20;101001.78;1297220;22;786;-77
2022/11/06 00:25:54;;;;;;;;;;;;;;;15.11;76.01;101002.38;1297024;22;594;-77
2022/11/06 00:26:44;;;;;;;;;;;;;;;15.13;75.83;100996.91;1297139;22;653;-77
2022/11/06 00:27:36;;;;;;;;;;;;;;;15.04;76.06;100998.50;1297039;22;691;-76
2022/11/06 00:28:26;;;;;;;;;;;;;;;15.08;76.55;100999.94;1297191;22;645;-77
2022/11/06 00:29:16;;;;;;;;;;;;;;;15.04;75.94;100985.09;1296896;22;597;-76
2022/11/06 00:30:08;;;;;;;;;;;;;;;15.07;75.89;100997.38;1297105;22;672;-77
2022/11/06 00:30:58;;;;;;;;;;;;;;;15.09;76.33;100992.75;1297967;22;605;-76
2022/11/06 00:31:49;;;;;;;;;;;;;;;14.96;74.02;101000.09;1297103;22;600;-76
2022/11/06 00:32:39;;;;;;;;;;;;;;;14.93;76.44;100996.69;1297148;22;637;-76
2022/11/06 00:33:30;;;;;;;;;;;;;;;14.94;74.95;100993.03;1296954;22;609;-77
2022/11/06 00:34:20;;;;;;;;;;;;;;;14.95;75.98;100996.56;1297195;22;628;-76
2022/11/06 00:35:11;;;;;;;;;;;;;;;14.81;73.90;100995.00;1296674;22;625;-76
2022/11/06 00:36:01;;;;;;;;;;;;;;;14.71;74.98;100980.59;1295886;22;660;-76
2022/11/06 00:36:51;;;;;;;;;;;;;;;14.79;76.27;100983.53;1296233;22;778;-76
2022/11/06 00:37:42;;;;;;;;;;;;;;;14.92;76.49;100991.44;1297040;22;646;-76
2022/11/06 00:38:32;;;;;;;;;;;;;;;14.91;76.28;100982.53;1296899;22;755;-76
2022/11/06 00:39:23;;;;;;;;;;;;;;;14.98;76.58;100982.03;1297073;22;605;-76
2022/11/06 00:40:13;;;;;;;;;;;;;;;15.00;76.07;100983.63;1297108;22;657;-76
2022/11/06 00:41:04;;;;;;;;;;;;;;;15.01;76.06;100976.44;1297192;22;664;-76
2022/11/06 00:41:54;;;;;;;;;;;;;;;14.96;74.73;100984.00;1297316;22;716;-76
2022/11/06 00:42:45;;;;;;;;;;;;;;;15.02;76.17;100981.69;1296986;22;621;-77
2022/11/06 00:43:35;;;;;;;;;;;;;;;15.02;75.89;100983.50;1297134;22;629;-76
2022/11/06 00:44:25;;;;;;;;;;;;;;;14.98;75.53;100977.53;1296897;22;609;-76
2022/11/06 00:45:16;;;;;;;;;;;;;;;14.96;75.71;100973.25;1297135;22;620;-76
2022/11/06 00:46:06;;;;;;;;;;;;;;;14.97;76.23;100974.97;1296846;22;655;-76
2022/11/06 00:46:57;;;;;;;;;;;;;;;15.02;76.41;100980.81;1295706;22;625;-76
2022/11/06 00:47:47;;;;;;;;;;;;;;;14.83;75.64;100984.13;1296371;22;617;-76
2022/11/06 00:48:38;;;;;;;;;;;;;;;14.97;76.82;100975.81;1296935;22;582;-76
2022/11/06 00:49:28;;;;;;;;;;;;;;;14.98;76.43;100971.31;1297148;22;679;-77
2022/11/06 00:50:19;;;;;;;;;;;;;;;15.03;76.69;100979.84;1296946;22;633;-76
2022/11/06 00:51:09;;;;;;;;;;;;;;;14.94;74.99;100971.56;1297206;22;617;-76
2022/11/06 00:52:00;;;;;;;;;;;;;;;15.04;76.40;100970.81;1296950;22;644;-77
2022/11/06 00:52:50;;;;;;;;;;;;;;;14.99;76.11;100973.88;1297094;22;684;-76
2022/11/06 00:53:40;;;;;;;;;;;;;;;15.05;76.54;100967.16;1298071;22;711;-76
2022/11/06 00:54:31;;;;;;;;;;;;;;;15.05;75.86;100969.84;1297001;22;657;-76
2022/11/06 00:55:21;;;;;;;;;;;;;;;14.98;76.18;100968.63;1297243;22;739;-76
2022/11/06 00:56:12;;;;;;;;;;;;;;;14.97;75.33;100967.78;1297451;22;594;-76
2022/11/06 00:57:02;;;;;;;;;;;;;;;14.99;76.02;100973.03;1297498;22;557;-75
2022/11/06 00:57:53;;;;;;;;;;;;;;;15.03;76.16;100969.97;1297450;22;609;-76
2022/11/06 00:58:43;;;;;;;;;;;;;;;15.02;76.34;100967.41;1297469;22;673;-76
2022/11/06 00:59:33;;;;;;;;;;;;;;;15.00;75.00;100972.91;1297310;22;608;-76
2022/11/06 01:00:24;;;;;;;;;;;;;;;14.96;76.14;100971.44;1297533;22;735;-75
2022/11/06 01:01:14;;;;;;;;;;;;;;;14.93;75.08;100964.47;1297232;22;637;-76
2022/11/06 01:02:05;;;;;;;;;;;;;;;14.98;76.69;100966.78;1297504;22;645;-76
2022/11/06 01:02:56;;;;;;;;;;;;;;;14.99;74.85;100973.03;1297371;22;625;-76
2022/11/06 01:03:46;;;;;;;;;;;;;;;14.97;75.12;100966.91;1297342;22;621;-76
2022/11/06 01:04:36;;;;;;;;;;;;;;;14.95;76.50;100969.72;1297309;22;700;-76
2022/11/06 01:05:27;;;;;;;;;;;;;;;15.04;76.61;100965.44;1297391;22;639;-75
2022/11/06 01:06:17;;;;;;;;;;;;;;;15.06;75.99;100967.00;1297588;22;601;-76
2022/11/06 01:07:08;;;;;;;;;;;;;;;15.08;76.39;100959.69;1296707;22;609;-76
2022/11/06 01:07:58;;;;;;;;;;;;;;;15.09;76.35;100956.03;1297368;22;1958;-75
2022/11/06 01:08:48;;;;;;;;;;;;;;;15.09;76.16;100957.84;1297309;22;763;-76
2022/11/06 01:09:39;;;;;;;;;;;;;;;15.11;76.12;100961.28;1297380;22;621;-76
2022/11/06 01:10:29;;;;;;;;;;;;;;;15.13;76.45;100965.53;1297133;22;699;-75
2022/11/06 01:11:20;;;;;;;;;;;;;;;15.14;76.02;100955.66;1296005;22;619;-77
2022/11/06 01:12:10;;;;;;;;;;;;;;;15.13;76.38;100964.69;1296614;22;652;-77
2022/11/06 01:13:01;;;;;;;;;;;;;;;15.09;75.19;100964.06;1297329;22;649;-77
2022/11/06 01:13:51;;;;;;;;;;;;;;;15.03;74.13;100959.22;1297496;22;672;-77
2022/11/06 01:14:42;;;;;;;;;;;;;;;15.04;76.08;100957.41;1297357;22;598;-77
2022/11/06 01:15:32;;;;;;;;;;;;;;;15.09;76.68;100965.91;1297424;22;653;-77
2022/11/06 01:16:22;;;;;;;;;;;;;;;15.10;76.67;100972.97;1297516;22;630;-77
2022/11/06 01:17:13;;;;;;;;;;;;;;;15.09;76.78;100968.59;1297319;22;613;-77
2022/11/06 01:18:03;;;;;;;;;;;;;;;15.08;76.40;100973.09;1297563;22;799;-77
2022/11/06 01:18:54;;;;;;;;;;;;;;;15.12;76.52;100965.66;1297524;22;613;-78
2022/11/06 01:19:44;;;;;;;;;;;;;;;15.09;76.62;100968.59;1297569;22;605;-77
2022/11/06 01:20:35;;;;;;;;;;;;;;;15.05;76.36;100969.84;1297296;22;668;-77
2022/11/06 01:21:25;;;;;;;;;;;;;;;15.07;76.95;100965.19;1296997;22;648;-77
2022/11/06 01:22:15;;;;;;;;;;;;;;;15.09;76.98;100958.72;1297262;22;652;-77
2022/11/06 01:23:06;;;;;;;;;;;;;;;15.13;76.49;100965.53;1297348;22;616;-78
2022/11/06 01:23:56;;;;;;;;;;;;;;;15.13;76.53;100959.31;1297446;22;656;-76
2022/11/06 01:24:47;;;;;;;;;;;;;;;15.12;76.58;100963.84;1297314;22;652;-76
2022/11/06 01:25:37;;;;;;;;;;;;;;;15.10;76.51;100968.47;1297440;22;672;-76
2022/11/06 01:26:28;;;;;;;;;;;;;;;15.12;76.92;100957.59;1297235;22;749;-76
2022/11/06 01:27:18;;;;;;;;;;;;;;;15.08;76.61;100964.19;1297343;22;608;-76
2022/11/06 01:28:08;;;;;;;;;;;;;;;15.09;75.59;100971.28;1297369;22;1914;-77
2022/11/06 01:28:59;;;;;;;;;;;;;;;15.05;77.07;100959.09;1297275;22;653;-77
2022/11/06 01:29:49;;;;;;;;;;;;;;;14.99;74.97;100965.81;1297554;22;593;-77
2022/11/06 01:30:40;;;;;;;;;;;;;;;15.05;76.92;100961.78;1296904;22;664;-76
2022/11/06 01:31:30;;;;;;;;;;;;;;;15.00;77.21;100954.09;1296098;22;660;-77
2022/11/06 01:32:20;;;;;;;;;;;;;;;15.03;76.63;100953.00;1296269;22;715;-76
2022/11/06 01:33:11;;;;;;;;;;;;;;;15.06;76.75;100952.72;1297343;22;608;-76
2022/11/06 01:34:01;;;;;;;;;;;;;;;15.06;76.42;100952.72;1297569;22;644;-76
2022/11/06 01:34:52;;;;;;;;;;;;;;;14.98;75.35;100947.16;1297447;22;625;-75
2022/11/06 01:35:42;;;;;;;;;;;;;;;14.94;77.04;100955.44;1297411;22;687;-78
2022/11/06 01:36:33;;;;;;;;;;;;;;;14.99;76.87;100941.66;1297383;22;625;-76
2022/11/06 01:37:23;;;;;;;;;;;;;;;15.05;76.73;100951.06;1297307;22;742;-77
2022/11/06 01:38:14;;;;;;;;;;;;;;;15.01;76.35;100942.41;1297294;22;632;-77
2022/11/06 01:39:04;;;;;;;;;;;;;;;15.06;76.61;100947.38;1297526;22;529;-76
2022/11/06 01:39:54;;;;;;;;;;;;;;;15.09;76.82;100947.13;1297488;22;683;-76
2022/11/06 01:40:45;;;;;;;;;;;;;;;15.12;76.38;100944.19;1297179;22;628;-76
2022/11/06 01:41:35;;;;;;;;;;;;;;;15.14;76.41;100947.59;1296254;22;624;-76
2022/11/06 01:42:26;;;;;;;;;;;;;;;15.17;76.28;100950.03;1296395;22;636;-76
2022/11/06 01:43:16;;;;;;;;;;;;;;;15.17;76.26;100947.34;1297628;22;639;-77
2022/11/06 01:44:07;;;;;;;;;;;;;;;15.09;75.63;100952.50;1298331;22;620;-77
2022/11/06 01:44:58;;;;;;;;;;;;;;;15.07;76.31;100957.97;1297406;22;605;-76
2022/11/06 01:45:48;;;;;;;;;;;;;;;15.09;76.64;100953.34;1297394;22;668;-76
2022/11/06 01:46:39;;;;;;;;;;;;;;;15.06;75.40;100950.03;1297253;22;661;-77
2022/11/06 01:47:29;;;;;;;;;;;;;;;15.09;76.68;100953.34;1297359;22;605;-76
2022/11/06 01:48:20;;;;;;;;;;;;;;;15.09;76.93;100952.50;1297038;22;1931;-76
2022/11/06 01:49:10;;;;;;;;;;;;;;;15.07;76.81;100949.94;1298305;22;629;-77
2022/11/06 01:50:00;;;;;;;;;;;;;;;15.09;76.70;100953.34;1297495;22;747;-76
2022/11/06 01:50:51;;;;;;;;;;;;;;;15.11;76.68;100951.38;1297292;22;648;-76
2022/11/06 01:51:41;;;;;;;;;;;;;;;15.11;76.28;100947.84;1297291;22;1123;-77
2022/11/06 01:52:32;;;;;;;;;;;;;;;15.13;76.64;100957.47;1297112;22;648;-77
2022/11/06 01:53:22;;;;;;;;;;;;;;;15.09;75.08;100949.81;1297388;22;533;-76
2022/11/06 01:54:13;;;;;;;;;;;;;;;15.08;76.87;100945.41;1297245;22;656;-77
2022/11/06 01:55:03;;;;;;;;;;;;;;;15.09;76.23;100947.97;1297401;22;798;-77
2022/11/06 01:55:53;;;;;;;;;;;;;;;15.04;75.78;100957.41;1297446;22;612;-77
2022/11/06 01:56:44;;;;;;;;;;;;;;;15.08;76.79;100946.25;1297256;22;691;-77
2022/11/06 01:57:34;;;;;;;;;;;;;;;15.08;76.55;100954.31;1297330;22;649;-77
2022/11/06 01:58:25;;;;;;;;;;;;;;;15.05;75.91;100948.38;1297366;22;617;-76
2022/11/06 01:59:15;;;;;;;;;;;;;;;15.04;76.03;100943.97;1297401;22;675;-76
2022/11/06 02:00:06;;;;;;;;;;;;;;;15.05;76.28;100946.50;1297366;22;818;-77
2022/11/06 02:00:56;;;;;;;;;;;;;;;14.96;74.87;100951.78;1297329;22;550;-76
2022/11/06 02:01:46;;;;;;;;;;;;;;;14.89;75.95;100944.22;1297413;22;680;-77
2022/11/06 02:02:37;;;;;;;;;;;;;;;14.98;76.61;100944.47;1297214;22;499;-77
2022/11/06 02:03:27;;;;;;;;;;;;;;;14.99;76.53;100938.97;1297491;22;621;-77
2022/11/06 02:04:18;;;;;;;;;;;;;;;15.04;76.80;100933.25;1297255;22;660;-76
2022/11/06 02:05:08;;;;;;;;;;;;;;;15.08;76.49;100940.03;1296651;22;728;-77
2022/11/06 02:05:58;;;;;;;;;;;;;;;15.09;76.17;100941.75;1297443;22;668;-77
2022/11/06 02:06:49;;;;;;;;;;;;;;;15.11;76.54;100939.78;1298337;22;708;-77
2022/11/06 02:07:39;;;;;;;;;;;;;;;15.09;76.54;100931.00;1297328;22;643;-77
2022/11/06 02:08:30;;;;;;;;;;;;;;;15.02;75.20;100936.06;1297302;22;789;-77
2022/11/06 02:09:20;;;;;;;;;;;;;;;15.02;76.53;100936.06;1297270;22;604;-77
2022/11/06 02:10:11;;;;;;;;;;;;;;;15.01;74.94;100928.13;1297129;22;617;-77
2022/11/06 02:11:01;;;;;;;;;;;;;;;15.02;76.70;100932.53;1297362;22;617;-76
2022/11/06 02:11:52;;;;;;;;;;;;;;;15.01;76.39;100925.44;1297141;22;657;-77
2022/11/06 02:12:42;;;;;;;;;;;;;;;15.03;75.92;100934.22;1297386;22;660;-77
2022/11/06 02:13:32;;;;;;;;;;;;;;;15.07;76.65;100931.13;1297314;22;582;-77
2022/11/06 02:14:23;;;;;;;;;;;;;;;15.09;76.78;100937.22;1297282;22;624;-77
2022/11/06 02:15:13;;;;;;;;;;;;;;;15.09;76.68;100931.00;1297289;22;676;-77
2022/11/06 02:16:04;;;;;;;;;;;;;;;15.01;75.45;100931.66;1297308;22;605;-77
2022/11/06 02:16:54;;;;;;;;;;;;;;;15.03;76.65;100934.22;1297343;22;617;-76
2022/11/06 02:17:45;;;;;;;;;;;;;;;15.02;76.52;100941.41;1297164;22;691;-77
2022/11/06 02:18:35;;;;;;;;;;;;;;;15.02;76.71;100932.53;1297208;22;569;-77
2022/11/06 02:19:25;;;;;;;;;;;;;;;15.05;76.52;100933.09;1296980;22;688;-77
2022/11/06 02:20:16;;;;;;;;;;;;;;;15.07;76.34;100935.66;1297295;22;640;-77
2022/11/06 02:21:06;;;;;;;;;;;;;;;15.02;76.65;100932.53;1297218;22;626;-77
2022/11/06 02:21:57;;;;;;;;;;;;;;;14.99;74.68;100930.06;1296937;22;793;-77
2022/11/06 02:22:47;;;;;;;;;;;;;;;14.96;76.71;100925.81;1296162;22;629;-77
2022/11/06 02:23:38;;;;;;;;;;;;;;;15.03;76.66;100921.66;1296369;22;577;-78
2022/11/06 02:24:28;;;;;;;;;;;;;;;15.00;76.11;100924.59;1297429;22;612;-77
2022/11/06 02:25:19;;;;;;;;;;;;;;;15.03;76.82;100921.66;1297190;22;758;-76
2022/11/06 02:26:09;;;;;;;;;;;;;;;14.97;75.33;100921.28;1297360;22;569;-76
2022/11/06 02:26:59;;;;;;;;;;;;;;;14.96;76.67;100919.59;1297310;22;664;-76
2022/11/06 02:27:50;;;;;;;;;;;;;;;15.02;76.19;100924.47;1297305;22;585;-77
2022/11/06 02:28:40;;;;;;;;;;;;;;;14.89;76.74;100925.44;1297369;22;664;-76
2022/11/06 02:29:31;;;;;;;;;;;;;;;15.00;77.00;100923.72;1297281;22;594;-76
2022/11/06 02:30:21;;;;;;;;;;;;;;;14.94;76.87;100925.94;1297379;22;625;-76
2022/11/06 02:31:12;;;;;;;;;;;;;;;15.00;76.82;100921.06;1297129;22;633;-76
2022/11/06 02:32:02;;;;;;;;;;;;;;;15.05;76.54;100918.84;1297561;22;641;-76
2022/11/06 02:32:53;;;;;;;;;;;;;;;15.03;75.68;100926.16;1297168;22;637;-76
2022/11/06 02:33:43;;;;;;;;;;;;;;;14.97;76.30;100918.63;1297430;22;616;-76
2022/11/06 02:34:34;;;;;;;;;;;;;;;14.99;76.56;100920.19;1297210;22;606;-76
2022/11/06 02:35:24;;;;;;;;;;;;;;;15.00;76.60;100921.91;1297129;22;617;-76
2022/11/06 02:36:14;;;;;;;;;;;;;;;15.03;76.44;100921.66;1297357;22;668;-76
2022/11/06 02:37:05;;;;;;;;;;;;;;;15.07;76.82;100916.88;1297092;22;633;-76
2022/11/06 02:37:55;;;;;;;;;;;;;;;15.07;76.69;100912.34;1297379;22;679;-76
2022/11/06 02:38:46;;;;;;;;;;;;;;;15.11;76.39;100912.94;1297182;22;610;-76
2022/11/06 02:39:36;;;;;;;;;;;;;;;14.94;74.16;100912.53;1297252;22;688;-77
2022/11/06 02:40:28;;;;;;;;;;;;;;;14.98;77.07;100912.28;1296633;22;589;-76
2022/11/06 02:41:18;;;;;;;;;;;;;;;15.02;76.97;100914.59;1295853;22;631;-75
2022/11/06 02:42:08;;;;;;;;;;;;;;;15.03;77.00;100910.91;1296643;22;680;-76
2022/11/06 02:42:59;;;;;;;;;;;;;;;15.03;75.92;100912.75;1297225;22;685;-76
2022/11/06 02:43:49;;;;;;;;;;;;;;;15.05;76.73;100911.63;1297248;22;704;-76
2022/11/06 02:44:40;;;;;;;;;;;;;;;15.01;76.22;100912.03;1297235;22;633;-76
2022/11/06 02:45:30;;;;;;;;;;;;;;;14.90;75.07;100915.56;1297139;22;602;-76
2022/11/06 02:46:21;;;;;;;;;;;;;;;14.92;77.10;100913.63;1296632;22;975;-76
2022/11/06 02:47:11;;;;;;;;;;;;;;;14.96;77.09;100904.34;1296001;22;631;-76
2022/11/06 02:48:02;;;;;;;;;;;;;;;15.03;76.77;100912.75;1295989;22;1884;-76
2022/11/06 02:48:52;;;;;;;;;;;;;;;14.90;74.28;100915.56;1297153;22;633;-76
2022/11/06 02:49:42;;;;;;;;;;;;;;;14.77;75.02;100918.41;1297243;22;676;-76
2022/11/06 02:50:33;;;;;;;;;;;;;;;14.78;76.47;100912.06;1297204;22;657;-76
2022/11/06 02:51:23;;;;;;;;;;;;;;;14.82;77.36;100913.53;1296932;22;1127;-76
2022/11/06 02:52:14;;;;;;;;;;;;;;;14.74;74.87;100909.75;1296946;22;625;-76
2022/11/06 02:53:04;;;;;;;;;;;;;;;14.75;76.20;100908.78;1297276;22;601;-76
2022/11/06 02:53:54;;;;;;;;;;;;;;;14.82;77.40;100915.34;1297267;22;672;-76
2022/11/06 02:54:45;;;;;;;;;;;;;;;14.91;76.69;100911.91;1297196;22;586;-77
2022/11/06 02:55:35;;;;;;;;;;;;;;;14.93;76.56;100913.50;1297322;22;621;-76
2022/11/06 02:56:26;;;;;;;;;;;;;;;14.94;76.65;100911.66;1297073;22;656;-76
2022/11/06 02:57:16;;;;;;;;;;;;;;;14.88;76.73;100914.84;1297221;22;661;-76
2022/11/06 02:58:07;;;;;;;;;;;;;;;14.93;76.79;100913.50;1297122;22;613;-77
2022/11/06 02:58:57;;;;;;;;;;;;;;;15.00;76.88;100910.31;1297277;22;577;-77
2022/11/06 02:59:48;;;;;;;;;;;;;;;15.03;76.31;100913.59;1297178;22;615;-77
2022/11/06 03:00:38;;;;;;;;;;;;;;;15.02;75.80;100914.59;1297222;22;614;-76
2022/11/06 03:01:29;;;;;;;;;;;;;;;15.04;76.90;100912.63;1297288;22;668;-76
2022/11/06 03:02:19;;;;;;;;;;;;;;;15.05;76.68;100916.16;1297134;22;636;-76
2022/11/06 03:03:09;;;;;;;;;;;;;;;15.02;76.83;100914.59;1296607;22;657;-76
2022/11/06 03:04:00;;;;;;;;;;;;;;;15.00;76.72;100904.94;1297345;22;597;-76
2022/11/06 03:04:50;;;;;;;;;;;;;;;14.92;76.82;100911.78;1297119;22;613;-76
2022/11/06 03:05:41;;;;;;;;;;;;;;;14.90;76.46;100900.31;1297016;22;607;-76
2022/11/06 03:06:31;;;;;;;;;;;;;;;14.93;76.56;100900.06;1297156;22;742;-76
2022/11/06 03:07:22;;;;;;;;;;;;;;;15.00;77.02;100894.22;1296883;22;633;-76
2022/11/06 03:08:12;;;;;;;;;;;;;;;15.04;76.91;100895.69;1297076;22;1934;-76
2022/11/06 03:09:03;;;;;;;;;;;;;;;15.04;76.67;100887.63;1297342;22;621;-76
2022/11/06 03:09:53;;;;;;;;;;;;;;;14.97;76.46;100884.59;1297981;22;604;-76
2022/11/06 03:10:44;;;;;;;;;;;;;;;15.03;76.96;100889.44;1298121;22;663;-76
2022/11/06 03:11:37;;;;;;;;;;;;;;;15.02;76.74;100879.69;1297045;22;586;-76
2022/11/06 03:12:28;;;;;;;;;;;;;;;15.06;76.85;100886.50;1298053;22;656;-76
2022/11/06 03:13:18;;;;;;;;;;;;;;;15.04;75.69;100876.88;1297105;22;668;-76
2022/11/06 03:14:09;;;;;;;;;;;;;;;14.95;76.45;100883.84;1297281;22;675;-76
2022/11/06 03:14:59;;;;;;;;;;;;;;;14.99;76.56;100884.47;1297093;22;585;-76
2022/11/06 03:15:49;;;;;;;;;;;;;;;14.98;76.47;100880.91;1297233;22;667;-76
2022/11/06 03:16:40;;;;;;;;;;;;;;;14.99;77.42;100884.47;1296767;22;659;-76
2022/11/06 03:17:30;;;;;;;;;;;;;;;15.03;76.51;100889.44;1295321;22;633;-76
2022/11/06 03:18:21;;;;;;;;;;;;;;;14.97;77.23;100878.38;1297959;22;573;-75
2022/11/06 03:19:11;;;;;;;;;;;;;;;15.02;76.91;100887.75;1296753;22;656;-76
2022/11/06 03:20:02;;;;;;;;;;;;;;;14.99;76.51;100887.13;1296103;22;660;-76
2022/11/06 03:20:52;;;;;;;;;;;;;;;14.99;76.71;100888.00;1289619;23;628;-76
2022/11/06 03:21:42;;;;;;;;;;;;;;;15.02;76.72;100882.38;1290471;23;671;-76
2022/11/06 03:22:33;;;;;;;;;;;;;;;15.02;77.01;100886.91;1297831;22;620;-77
2022/11/06 03:23:23;;;;;;;;;;;;;;;14.99;76.34;100884.47;1296776;22;687;-77
2022/11/06 03:24:14;;;;;;;;;;;;;;;15.01;76.95;100885.19;1295790;22;630;-77
2022/11/06 03:25:04;;;;;;;;;;;;;;;14.91;76.73;100888.63;1296329;22;657;-77
2022/11/06 03:25:54;;;;;;;;;;;;;;;14.92;77.07;100889.47;1297177;22;585;-76
2022/11/06 03:26:45;;;;;;;;;;;;;;;14.94;76.41;100893.72;1297117;22;632;-77
2022/11/06 03:27:35;;;;;;;;;;;;;;;14.96;76.94;100888.25;1297210;22;672;-76
2022/11/06 03:28:26;;;;;;;;;;;;;;;14.89;75.11;100890.56;1297031;22;648;-76
2022/11/06 03:29:16;;;;;;;;;;;;;;;14.96;76.34;100893.59;1297121;22;632;-75
2022/11/06 03:30:07;;;;;;;;;;;;;;;14.94;77.22;100896.41;1297039;22;743;-76
2022/11/06 03:30:57;;;;;;;;;;;;;;;14.93;76.88;100878.59;1297098;22;541;-76
2022/11/06 03:31:47;;;;;;;;;;;;;;;14.91;75.80;100896.66;1296771;22;664;-76
2022/11/06 03:32:38;;;;;;;;;;;;;;;14.94;76.94;100893.72;1296954;22;621;-76
2022/11/06 03:33:28;;;;;;;;;;;;;;;14.97;75.70;100883.72;1297011;22;656;-75
2022/11/06 03:34:19;;;;;;;;;;;;;;;14.90;75.69;100876.19;1298062;22;703;-75
2022/11/06 03:35:09;;;;;;;;;;;;;;;14.87;76.48;100881.78;1297111;22;645;-76
2022/11/06 03:35:59;;;;;;;;;;;;;;;14.94;76.76;100880.31;1297213;22;656;-75
2022/11/06 03:36:50;;;;;;;;;;;;;;;14.95;76.16;100875.81;1296953;22;626;-74
2022/11/06 03:37:40;;;;;;;;;;;;;;;14.96;76.76;100873.97;1297228;22;615;-75
2022/11/06 03:38:31;;;;;;;;;;;;;;;15.02;76.88;100868.09;1297024;22;657;-75
2022/11/06 03:39:21;;;;;;;;;;;;;;;15.02;76.56;100877.00;1297131;22;628;-76
2022/11/06 03:40:12;;;;;;;;;;;;;;;15.05;76.33;100870.53;1297142;22;637;-75
2022/11/06 03:41:02;;;;;;;;;;;;;;;14.91;76.33;100871.66;1297071;22;605;-75
2022/11/06 03:41:52;;;;;;;;;;;;;;;14.94;76.74;100863.38;1297273;22;621;-75
2022/11/06 03:42:43;;;;;;;;;;;;;;;14.99;76.59;100871.03;1297022;22;598;-76
2022/11/06 03:43:33;;;;;;;;;;;;;;;14.94;76.63;100866.03;1297119;22;727;-76
2022/11/06 03:44:24;;;;;;;;;;;;;;;14.99;76.69;100865.66;1297131;22;617;-75
2022/11/06 03:45:14;;;;;;;;;;;;;;;14.97;77.11;100873.00;1296956;22;621;-76
2022/11/06 03:46:05;;;;;;;;;;;;;;;14.99;76.57;100871.03;1297260;22;702;-76
2022/11/06 03:46:55;;;;;;;;;;;;;;;14.97;76.69;100862.25;1297065;22;668;-76
2022/11/06 03:47:45;;;;;;;;;;;;;;;15.00;76.74;100864.69;1297102;22;636;-76
2022/11/06 03:48:36;;;;;;;;;;;;;;;15.01;76.63;100859.19;1297170;22;550;-76
2022/11/06 03:49:26;;;;;;;;;;;;;;;15.05;76.31;100862.50;1297082;22;593;-76
2022/11/06 03:50:17;;;;;;;;;;;;;;;15.05;76.49;100865.16;1297213;22;668;-75
2022/11/06 03:51:07;;;;;;;;;;;;;;;15.02;76.77;100868.09;1297032;22;641;-77
2022/11/06 03:51:57;;;;;;;;;;;;;;;15.03;76.55;100867.13;1297200;22;629;-75
2022/11/06 03:52:48;;;;;;;;;;;;;;;15.05;76.60;100870.53;1297075;22;617;-76
2022/11/06 03:53:38;;;;;;;;;;;;;;;15.00;76.86;100865.53;1297210;22;657;-75
2022/11/06 03:54:29;;;;;;;;;;;;;;;15.02;76.77;100866.28;1296927;22;613;-76
2022/11/06 03:55:19;;;;;;;;;;;;;;;15.04;76.33;100882.25;1297108;22;549;-76
2022/11/06 03:56:10;;;;;;;;;;;;;;;14.98;76.89;100866.66;1297082;22;601;-77
2022/11/06 03:57:00;;;;;;;;;;;;;;;14.93;76.42;100864.34;1297136;22;609;-77
2022/11/06 03:57:51;;;;;;;;;;;;;;;14.96;76.67;100865.91;1296633;22;652;-76
2022/11/06 03:58:41;;;;;;;;;;;;;;;14.98;76.75;100870.19;1295834;22;668;-76
2022/11/06 03:59:31;;;;;;;;;;;;;;;15.01;76.62;100864.56;1296305;22;656;-76
2022/11/06 04:00:22;;;;;;;;;;;;;;;15.01;76.29;100853.84;1297024;22;782;-75
2022/11/06 04:01:12;;;;;;;;;;;;;;;14.90;76.69;100860.06;1296644;22;747;-75
2022/11/06 04:02:03;;;;;;;;;;;;;;;14.93;76.70;100861.66;1296864;22;605;-75
2022/11/06 04:03:03;;;;;;;;;;;;;;;14.97;77.16;100862.25;1297221;22;653;-75
2022/11/06 04:03:54;;;;;;;;;;;;;;;14.99;76.74;100863.00;1297135;22;703;-77
2022/11/06 04:04:44;;;;;;;;;;;;;;;15.02;76.61;100865.41;1297300;22;912;-76
2022/11/06 04:05:35;;;;;;;;;;;;;;;15.03;76.38;100869.81;1297850;22;585;-76
2022/11/06 04:06:25;;;;;;;;;;;;;;;14.92;74.27;100866.16;1297109;22;665;-76
2022/11/06 04:07:16;;;;;;;;;;;;;;;14.97;77.04;100859.56;1297050;22;613;-76
2022/11/06 04:14:01;;;;;;;;;;;;;;;15.05;76.95;100843.69;1295565;22;621;-77
2022/11/06 04:14:52;;;;;;;;;;;;;;;15.04;76.35;100839.31;1297283;22;612;-76
2022/11/06 04:15:42;;;;;;;;;;;;;;;15.03;76.84;100845.66;1296576;22;601;-76
2022/11/06 04:16:32;;;;;;;;;;;;;;;15.05;76.52;100846.38;1297236;22;656;-76
2022/11/06 04:17:23;;;;;;;;;;;;;;;15.04;76.71;100840.16;1297114;22;652;-77
2022/11/06 04:18:13;;;;;;;;;;;;;;;15.04;76.53;100842.00;1297100;22;675;-76
2022/11/06 04:19:04;;;;;;;;;;;;;;;15.03;76.76;100841.16;1297040;22;613;-76
2022/11/06 04:19:54;;;;;;;;;;;;;;;15.04;76.40;100833.94;1297112;22;601;-76
2022/11/06 04:21:54;;;;;;;;;;;;;;;15.03;76.63;100845.66;1294382;22;656;-75
2022/11/06 04:22:44;;;;;;;;;;;;;;;15.03;76.97;100842.97;1297125;22;645;-75
2022/11/06 04:23:35;;;;;;;;;;;;;;;15.03;76.79;100845.66;1296866;22;593;-76
2022/11/06 04:26:43;;;;;;;;;;;;;;;15.04;76.96;100829.44;1295301;22;602;-77
2022/11/06 04:27:34;;;;;;;;;;;;;;;15.06;76.82;100831.97;1297310;22;557;-76
2022/11/06 04:28:24;;;;;;;;;;;;;;;15.06;76.59;100829.28;1296889;22;1888;-75
2022/11/06 04:29:14;;;;;;;;;;;;;;;15.05;76.45;100825.72;1297247;22;691;-77
2022/11/06 04:30:05;;;;;;;;;;;;;;;15.05;76.35;100824.91;1296272;22;622;-77
2022/11/06 04:30:55;;;;;;;;;;;;;;;15.03;75.88;100826.88;1297531;22;649;-77
2022/11/06 04:31:46;;;;;;;;;;;;;;;15.01;76.50;100826.16;1296903;22;617;-77
2022/11/06 04:32:37;;;;;;;;;;;;;;;15.03;76.62;100834.91;1296025;22;621;-77
2022/11/06 04:33:27;;;;;;;;;;;;;;;15.03;76.64;100845.66;1296678;22;601;-77
2022/11/06 04:34:18;;;;;;;;;;;;;;;15.02;76.49;100826.03;1297398;22;691;-77
2022/11/06 04:35:08;;;;;;;;;;;;;;;15.04;76.26;100825.91;1297489;22;762;-77
2022/11/06 04:35:59;;;;;;;;;;;;;;;14.87;75.76;100836.16;1297672;22;816;-77
2022/11/06 04:36:49;;;;;;;;;;;;;;;14.94;77.10;100820.44;1297346;22;557;-77
2022/11/06 04:37:40;;;;;;;;;;;;;;;14.96;76.67;100834.56;1297671;22;641;-76